sensor_id;sensor_type;location;lat;lon;timestamp;pressure;altitude;pressure_sealevel;temperature;humidity
8298;BME280;4187;42.778;23.242;2023-04-15T02:07:21;94542.84;;;7.30;100.00
8298;BME280;4187;42.778;23.242;2023-04-15T02:09:56;94553.75;;;7.35;100.00
8298;BME280;4187;42.778;23.242;2023-04-15T02:12:33;94561.38;;;7.29;100.00
8298;BME280;4187;42.778;23.242;2023-04-15T02:15:18;94567.22;;;7.13;100.00
8298;BME280;4187;42.778;23.242;2023-04-15T02:17:48;94588.06;;;7.05;100.00
8298;BME280;4187;42.778;23.242;2023-04-15T02:20:25;94602.03;;;6.96;100.00
8298;BME280;4187;42.778;23.242;2023-04-15T02:22:59;94597.72;;;6.95;100.00
8298;BME280;4187;42.778;23.242;2023-04-15T02:25:39;94588.66;;;6.80;100.00
8298;BME280;4187;42.778;23.242;2023-04-15T02:28:27;94587.84;;;6.70;100.00
8298;BME280;4187;42.778;23.242;2023-04-15T02:31:11;94592.09;;;6.71;100.00
8298;BME280;4187;42.778;23.242;2023-04-15T02:33:51;94593.63;;;6.63;100.00
8298;BME280;4187;42.778;23.242;2023-04-15T02:36:43;94579.69;;;6.63;100.00
8298;BME280;4187;42.778;23.242;2023-04-15T02:53:32;94573.31;;;6.18;100.00
8298;BME280;4187;42.778;23.242;2023-04-15T02:56:03;94578.41;;;6.19;100.00
8298;BME280;4187;42.778;23.242;2023-04-15T03:02:07;94579.34;;;6.09;100.00
8298;BME280;4187;42.778;23.242;2023-04-15T03:04:42;94575.19;;;6.06;100.00
8298;BME280;4187;42.778;23.242;2023-04-15T03:07:20;94570.78;;;6.07;100.00
8298;BME280;4187;42.778;23.242;2023-04-15T03:09:53;94578.66;;;6.07;100.00
8298;BME280;4187;42.778;23.242;2023-04-15T03:12:28;94573.69;;;5.94;100.00
8298;BME280;4187;42.778;23.242;2023-04-15T03:15:03;94590.91;;;5.96;100.00
8298;BME280;4187;42.778;23.242;2023-04-15T03:17:35;94592.13;;;5.92;100.00
8298;BME280;4187;42.778;23.242;2023-04-15T03:20:07;94606.72;;;5.85;100.00
8298;BME280;4187;42.778;23.242;2023-04-15T03:22:56;94608.88;;;5.80;100.00
8298;BME280;4187;42.778;23.242;2023-04-15T03:25:28;94603.47;;;5.72;100.00
8298;BME280;4187;42.778;23.242;2023-04-15T03:28:05;94617.78;;;5.68;100.00
8298;BME280;4187;42.778;23.242;2023-04-15T03:30:39;94607.59;;;5.35;100.00
8298;BME280;4187;42.778;23.242;2023-04-15T03:33:17;94624.88;;;5.26;100.00
8298;BME280;4187;42.778;23.242;2023-04-15T03:36:01;94621.88;;;4.90;100.00
8298;BME280;4187;42.778;23.242;2023-04-15T03:38:33;94617.75;;;4.55;100.00
8298;BME280;4187;42.778;23.242;2023-04-15T03:41:09;94627.56;;;4.42;100.00
8298;BME280;4187;42.778;23.242;2023-04-15T03:43:44;94620.53;;;5.97;100.00
8298;BME280;4187;42.778;23.242;2023-04-15T03:46:22;94628.25;;;6.96;100.00
8298;BME280;4187;42.778;23.242;2023-04-15T03:48:58;94635.38;;;7.88;100.00
8298;BME280;4187;42.778;23.242;2023-04-15T03:51:32;94622.91;;;8.54;100.00
8298;BME280;4187;42.778;23.242;2023-04-15T03:54:05;94629.81;;;9.26;100.00
8298;BME280;4187;42.778;23.242;2023-04-15T03:56:37;94655.19;;;9.52;100.00
8298;BME280;4187;42.778;23.242;2023-04-15T03:59:06;94667.97;;;9.47;100.00
8298;BME280;4187;42.778;23.242;2023-04-15T04:01:40;94661.16;;;9.19;100.00
8298;BME280;4187;42.778;23.242;2023-04-15T04:04:17;94663.81;;;9.62;100.00
8298;BME280;4187;42.778;23.242;2023-04-15T04:06:51;94652.41;;;9.80;100.00
8298;BME280;4187;42.778;23.242;2023-04-15T04:09:32;94659.56;;;9.95;100.00
8298;BME280;4187;42.778;23.242;2023-04-15T04:12:07;94658.97;;;9.76;100.00
8298;BME280;4187;42.778;23.242;2023-04-15T04:14:45;94667.19;;;9.73;100.00
8298;BME280;4187;42.778;23.242;2023-04-15T04:17:22;94679.94;;;10.11;100.00
8298;BME280;4187;42.778;23.242;2023-04-15T04:19:57;94674.16;;;10.41;100.00
8298;BME280;4187;42.778;23.242;2023-04-15T04:22:31;94668.66;;;10.68;100.00
8298;BME280;4187;42.778;23.242;2023-04-15T04:25:05;94649.50;;;10.50;96.98
8298;BME280;4187;42.778;23.242;2023-04-15T04:27:38;94649.56;;;9.99;95.94
8298;BME280;4187;42.778;23.242;2023-04-15T04:30:12;94673.25;;;9.47;97.39
8298;BME280;4187;42.778;23.242;2023-04-15T04:32:43;94669.44;;;8.89;99.63
8298;BME280;4187;42.778;23.242;2023-04-15T04:35:16;94670.66;;;8.50;100.00
8298;BME280;4187;42.778;23.242;2023-04-15T04:37:44;94670.41;;;8.16;100.00
8298;BME280;4187;42.778;23.242;2023-04-15T04:40:21;94671.44;;;7.96;100.00
8298;BME280;4187;42.778;23.242;2023-04-15T04:42:49;94665.72;;;7.73;100.00
8298;BME280;4187;42.778;23.242;2023-04-15T04:45:19;94668.91;;;7.67;100.00
8298;BME280;4187;42.778;23.242;2023-04-15T04:47:49;94669.47;;;7.61;100.00
8298;BME280;4187;42.778;23.242;2023-04-15T04:50:23;94658.91;;;7.24;100.00
8298;BME280;4187;42.778;23.242;2023-04-15T04:52:52;94661.41;;;7.16;100.00
8298;BME280;4187;42.778;23.242;2023-04-15T04:55:23;94663.59;;;6.92;100.00
8298;BME280;4187;42.778;23.242;2023-04-15T04:57:59;94666.75;;;6.76;100.00
8298;BME280;4187;42.778;23.242;2023-04-15T05:00:36;94677.69;;;6.81;100.00
8298;BME280;4187;42.778;23.242;2023-04-15T05:03:11;94681.97;;;6.92;100.00
8298;BME280;4187;42.778;23.242;2023-04-15T05:05:42;94674.78;;;6.94;100.00
8298;BME280;4187;42.778;23.242;2023-04-15T05:08:11;94679.06;;;7.04;100.00
8298;BME280;4187;42.778;23.242;2023-04-15T05:10:43;94680.03;;;7.13;100.00
8298;BME280;4187;42.778;23.242;2023-04-15T05:13:14;94677.53;;;7.11;100.00
8298;BME280;4187;42.778;23.242;2023-04-15T05:18:57;94649.38;;;6.94;100.00
8298;BME280;4187;42.778;23.242;2023-04-15T05:21:27;94643.03;;;6.97;100.00
8298;BME280;4187;42.778;23.242;2023-04-15T05:24:08;94687.59;;;7.45;100.00
8298;BME280;4187;42.778;23.242;2023-04-15T05:26:39;94686.75;;;7.54;100.00
8298;BME280;4187;42.778;23.242;2023-04-15T05:29:19;94676.22;;;7.63;100.00
8298;BME280;4187;42.778;23.242;2023-04-15T05:31:58;94699.66;;;7.84;100.00
8298;BME280;4187;42.778;23.242;2023-04-15T05:34:28;94690.50;;;7.98;100.00
8298;BME280;4187;42.778;23.242;2023-04-15T05:36:58;94695.72;;;8.07;100.00
8298;BME280;4187;42.778;23.242;2023-04-15T05:39:35;94698.84;;;8.20;100.00
8298;BME280;4187;42.778;23.242;2023-04-15T05:42:09;94696.75;;;8.33;100.00
8298;BME280;4187;42.778;23.242;2023-04-15T05:44:50;94699.97;;;8.55;100.00
8298;BME280;4187;42.778;23.242;2023-04-15T05:47:25;94705.69;;;8.68;100.00
8298;BME280;4187;42.778;23.242;2023-04-15T05:49:56;94715.16;;;8.88;100.00
8298;BME280;4187;42.778;23.242;2023-04-15T05:52:24;94715.59;;;9.01;100.00
8298;BME280;4187;42.778;23.242;2023-04-15T05:54:53;94721.88;;;9.18;100.00
8298;BME280;4187;42.778;23.242;2023-04-15T05:57:24;94709.38;;;9.37;100.00
8298;BME280;4187;42.778;23.242;2023-04-15T05:59:55;94716.28;;;9.56;100.00
8298;BME280;4187;42.778;23.242;2023-04-15T06:02:26;94701.09;;;9.68;100.00
8298;BME280;4187;42.778;23.242;2023-04-15T06:05:07;94723.19;;;10.00;100.00
8298;BME280;4187;42.778;23.242;2023-04-15T06:07:43;94712.88;;;10.07;100.00
8298;BME280;4187;42.778;23.242;2023-04-15T06:10:18;94706.41;;;10.19;100.00
8298;BME280;4187;42.778;23.242;2023-04-15T06:12:55;94727.31;;;10.54;100.00
8298;BME280;4187;42.778;23.242;2023-04-15T06:15:30;94697.31;;;10.55;100.00
8298;BME280;4187;42.778;23.242;2023-04-15T06:18:06;94739.19;;;10.92;100.00
8298;BME280;4187;42.778;23.242;2023-04-15T06:20:54;94743.19;;;11.04;100.00
8298;BME280;4187;42.778;23.242;2023-04-15T06:23:29;94744.06;;;11.21;100.00
8298;BME280;4187;42.778;23.242;2023-04-15T06:26:01;94748.41;;;11.46;100.00
8298;BME280;4187;42.778;23.242;2023-04-15T06:28:36;94760.31;;;11.66;100.00
8298;BME280;4187;42.778;23.242;2023-04-15T06:31:10;94757.22;;;11.87;100.00
8298;BME280;4187;42.778;23.242;2023-04-15T06:33:41;94735.06;;;11.96;100.00
8298;BME280;4187;42.778;23.242;2023-04-15T06:36:20;94756.19;;;12.28;100.00
8298;BME280;4187;42.778;23.242;2023-04-15T06:38:58;94748.41;;;12.43;100.00
8298;BME280;4187;42.778;23.242;2023-04-15T06:41:28;94763.72;;;12.64;100.00
8298;BME280;4187;42.778;23.242;2023-04-15T06:44:05;94772.47;;;12.80;100.00
8298;BME280;4187;42.778;23.242;2023-04-15T06:46:37;94771.53;;;13.04;100.00
8298;BME280;4187;42.778;23.242;2023-04-15T06:49:12;94748.63;;;14.18;100.00
8298;BME280;4187;42.778;23.242;2023-04-15T06:51:52;94775.38;;;14.31;96.91
8298;BME280;4187;42.778;23.242;2023-04-15T06:54:22;94776.38;;;14.30;94.17
8298;BME280;4187;42.778;23.242;2023-04-15T06:56:58;94770.22;;;14.38;95.25
8298;BME280;4187;42.778;23.242;2023-04-15T06:59:29;94776.19;;;14.54;95.32
8298;BME280;4187;42.778;23.242;2023-04-15T07:01:58;94767.75;;;14.65;96.14
8298;BME280;4187;42.778;23.242;2023-04-15T07:04:30;94759.97;;;14.64;93.13
8298;BME280;4187;42.778;23.242;2023-04-15T07:07:05;94763.38;;;14.72;92.11
8298;BME280;4187;42.778;23.242;2023-04-15T07:09:35;94753.22;;;14.76;92.61
8298;BME280;4187;42.778;23.242;2023-04-15T07:12:03;94762.25;;;14.81;93.12
8298;BME280;4187;42.778;23.242;2023-04-15T07:14:33;94763.47;;;14.93;94.55
8298;BME280;4187;42.778;23.242;2023-04-15T07:17:06;94766.66;;;15.04;94.07
8298;BME280;4187;42.778;23.242;2023-04-15T07:19:35;94772.53;;;15.14;91.82
8298;BME280;4187;42.778;23.242;2023-04-15T07:22:06;94765.38;;;15.29;92.87
8298;BME280;4187;42.778;23.242;2023-04-15T07:24:39;94755.34;;;15.45;91.13
8298;BME280;4187;42.778;23.242;2023-04-15T07:27:23;94772.94;;;15.61;87.42
8298;BME280;4187;42.778;23.242;2023-04-15T07:29:56;94748.88;;;15.69;100.00
8298;BME280;4187;42.778;23.242;2023-04-15T07:32:31;94778.28;;;15.82;85.86
8298;BME280;4187;42.778;23.242;2023-04-15T07:34:59;94778.78;;;15.92;87.71
8298;BME280;4187;42.778;23.242;2023-04-15T07:37:30;94780.56;;;16.06;85.58
8298;BME280;4187;42.778;23.242;2023-04-15T07:40:04;94778.84;;;16.20;84.02
8298;BME280;4187;42.778;23.242;2023-04-15T07:42:35;94782.47;;;16.34;81.87
8298;BME280;4187;42.778;23.242;2023-04-15T07:45:10;94781.91;;;16.59;83.59
8298;BME280;4187;42.778;23.242;2023-04-15T07:47:43;94794.56;;;16.57;79.35
8298;BME280;4187;42.778;23.242;2023-04-15T07:50:13;94790.44;;;16.55;81.60
8298;BME280;4187;42.778;23.242;2023-04-15T07:52:45;94785.47;;;16.73;79.64
8298;BME280;4187;42.778;23.242;2023-04-15T07:55:13;94795.53;;;17.05;79.32
8298;BME280;4187;42.778;23.242;2023-04-15T07:57:47;94791.94;;;17.26;78.48
8298;BME280;4187;42.778;23.242;2023-04-15T08:00:16;94798.22;;;17.53;77.76
8298;BME280;4187;42.778;23.242;2023-04-15T08:02:43;94797.47;;;17.65;76.17
8298;BME280;4187;42.778;23.242;2023-04-15T08:05:12;94776.66;;;17.48;73.89
8298;BME280;4187;42.778;23.242;2023-04-15T08:07:49;94781.75;;;17.83;89.99
8298;BME280;4187;42.778;23.242;2023-04-15T08:10:19;94774.84;;;18.41;91.35
8298;BME280;4187;42.778;23.242;2023-04-15T08:12:49;94787.66;;;18.59;78.68
8298;BME280;4187;42.778;23.242;2023-04-15T08:15:19;94807.78;;;18.55;69.78
8298;BME280;4187;42.778;23.242;2023-04-15T08:17:48;94799.34;;;18.58;66.30
8298;BME280;4187;42.778;23.242;2023-04-15T08:20:17;94796.44;;;18.40;64.55
8298;BME280;4187;42.778;23.242;2023-04-15T08:22:48;94782.44;;;18.18;66.16
8298;BME280;4187;42.778;23.242;2023-04-15T08:25:18;94804.63;;;18.06;64.61
8298;BME280;4187;42.778;23.242;2023-04-15T08:27:47;94795.31;;;17.88;67.77
8298;BME280;4187;42.778;23.242;2023-04-15T08:30:21;94795.50;;;17.87;65.68
8298;BME280;4187;42.778;23.242;2023-04-15T08:32:49;94788.06;;;17.69;65.52
8298;BME280;4187;42.778;23.242;2023-04-15T08:35:18;94799.22;;;17.45;66.59
8298;BME280;4187;42.778;23.242;2023-04-15T08:37:50;94804.75;;;17.03;64.46
8298;BME280;4187;42.778;23.242;2023-04-15T08:40:24;94806.75;;;16.45;65.82
8298;BME280;4187;42.778;23.242;2023-04-15T08:43:02;94774.13;;;16.15;67.00
8298;BME280;4187;42.778;23.242;2023-04-15T08:45:34;94770.03;;;16.20;65.38
8298;BME280;4187;42.778;23.242;2023-04-15T08:48:04;94784.75;;;16.37;67.31
8298;BME280;4187;42.778;23.242;2023-04-15T08:50:33;94777.19;;;16.40;68.37
8298;BME280;4187;42.778;23.242;2023-04-15T08:53:03;94793.47;;;16.52;68.72
8298;BME280;4187;42.778;23.242;2023-04-15T08:55:36;94778.06;;;16.47;65.79
8298;BME280;4187;42.778;23.242;2023-04-15T08:58:07;94773.78;;;16.46;65.52
8298;BME280;4187;42.778;23.242;2023-04-15T09:00:39;94784.94;;;16.56;64.41
8298;BME280;4187;42.778;23.242;2023-04-15T09:03:07;94771.13;;;16.74;63.35
8298;BME280;4187;42.778;23.242;2023-04-15T09:05:38;94779.41;;;16.58;63.88
8298;BME280;4187;42.778;23.242;2023-04-15T09:08:08;94769.84;;;16.42;62.88
8298;BME280;4187;42.778;23.242;2023-04-15T09:10:36;94765.84;;;16.32;64.55
8298;BME280;4187;42.778;23.242;2023-04-15T09:13:06;94774.78;;;16.45;64.84
8298;BME280;4187;42.778;23.242;2023-04-15T09:15:39;94755.91;;;16.40;64.92
8298;BME280;4187;42.778;23.242;2023-04-15T09:18:11;94750.78;;;16.66;66.66
8298;BME280;4187;42.778;23.242;2023-04-15T09:20:45;94773.38;;;16.70;66.96
8298;BME280;4187;42.778;23.242;2023-04-15T09:23:16;94748.72;;;16.62;61.71
8298;BME280;4187;42.778;23.242;2023-04-15T09:25:48;94749.63;;;16.76;61.50
8298;BME280;4187;42.778;23.242;2023-04-15T09:28:29;94744.53;;;16.81;62.64
8298;BME280;4187;42.778;23.242;2023-04-15T09:31:03;94711.97;;;16.57;61.40
8298;BME280;4187;42.778;23.242;2023-04-15T09:33:30;94740.19;;;16.73;63.80
8298;BME280;4187;42.778;23.242;2023-04-15T09:36:00;94750.09;;;16.86;63.67
8298;BME280;4187;42.778;23.242;2023-04-15T09:38:31;94758.31;;;16.91;60.39
8298;BME280;4187;42.778;23.242;2023-04-15T09:41:00;94744.59;;;16.94;64.23
8298;BME280;4187;42.778;23.242;2023-04-15T09:43:38;94757.78;;;17.02;62.50
8298;BME280;4187;42.778;23.242;2023-04-15T09:46:10;94745.91;;;17.04;62.48
8298;BME280;4187;42.778;23.242;2023-04-15T09:49:06;94755.94;;;17.02;61.60
8298;BME280;4187;42.778;23.242;2023-04-15T09:51:39;94742.53;;;16.89;59.28
8298;BME280;4187;42.778;23.242;2023-04-15T09:54:21;94722.97;;;16.76;61.55
8298;BME280;4187;42.778;23.242;2023-04-15T09:56:54;94750.50;;;17.23;62.31
8298;BME280;4187;42.778;23.242;2023-04-15T09:59:29;94768.00;;;17.39;50.55
8298;BME280;4187;42.778;23.242;2023-04-15T10:02:02;94760.56;;;17.28;48.53
8298;BME280;4187;42.778;23.242;2023-04-15T10:04:35;94759.66;;;17.08;51.40
8298;BME280;4187;42.778;23.242;2023-04-15T10:07:10;94741.16;;;17.00;51.04
8298;BME280;4187;42.778;23.242;2023-04-15T10:09:51;94709.72;;;16.89;53.07
8298;BME280;4187;42.778;23.242;2023-04-15T10:12:25;94757.00;;;17.08;48.14
8298;BME280;4187;42.778;23.242;2023-04-15T10:15:01;94757.78;;;17.02;49.72
8298;BME280;4187;42.778;23.242;2023-04-15T10:17:39;94737.06;;;16.97;48.27
8298;BME280;4187;42.778;23.242;2023-04-15T10:20:13;94745.91;;;17.04;48.75
8298;BME280;4187;42.778;23.242;2023-04-15T10:22:53;94742.94;;;17.27;47.74
8298;BME280;4187;42.778;23.242;2023-04-15T10:25:35;94737.38;;;17.22;47.77
8298;BME280;4187;42.778;23.242;2023-04-15T10:28:09;94739.50;;;17.40;48.73
8298;BME280;4187;42.778;23.242;2023-04-15T10:30:56;94728.63;;;17.41;46.26
8298;BME280;4187;42.778;23.242;2023-04-15T10:33:38;94726.34;;;17.31;49.43
8298;BME280;4187;42.778;23.242;2023-04-15T10:36:14;94721.16;;;17.23;50.33
8298;BME280;4187;42.778;23.242;2023-04-15T10:38:45;94731.41;;;17.20;50.63
8298;BME280;4187;42.778;23.242;2023-04-15T10:41:22;94737.13;;;17.10;50.46
8298;BME280;4187;42.778;23.242;2023-04-15T10:44:01;94726.00;;;17.07;50.44
8298;BME280;4187;42.778;23.242;2023-04-15T10:46:50;94724.31;;;17.40;50.48
8298;BME280;4187;42.778;23.242;2023-04-15T10:49:26;94728.03;;;17.52;47.84
8298;BME280;4187;42.778;23.242;2023-04-15T10:52:28;94713.09;;;17.58;49.02
8298;BME280;4187;42.778;23.242;2023-04-15T10:55:18;94717.66;;;17.64;45.96
8298;BME280;4187;42.778;23.242;2023-04-15T10:58:03;94689.84;;;17.45;46.71
8298;BME280;4187;42.778;23.242;2023-04-15T11:00:37;94711.09;;;17.60;46.01
8298;BME280;4187;42.778;23.242;2023-04-15T11:03:10;94724.47;;;17.86;51.80
8298;BME280;4187;42.778;23.242;2023-04-15T11:05:52;94706.41;;;17.81;47.81
8298;BME280;4187;42.778;23.242;2023-04-15T11:08:56;94699.19;;;17.82;46.81
8298;BME280;4187;42.778;23.242;2023-04-15T11:12:07;94712.59;;;18.15;50.86
8298;BME280;4187;42.778;23.242;2023-04-15T11:14:46;94686.69;;;18.09;46.11
8298;BME280;4187;42.778;23.242;2023-04-15T11:17:28;94710.13;;;18.39;44.78
8298;BME280;4187;42.778;23.242;2023-04-15T11:19:58;94695.56;;;18.35;40.00
8298;BME280;4187;42.778;23.242;2023-04-15T11:22:31;94684.03;;;18.35;43.71
8298;BME280;4187;42.778;23.242;2023-04-15T11:25:00;94679.50;;;18.09;40.32
8298;BME280;4187;42.778;23.242;2023-04-15T11:27:29;94709.09;;;18.21;40.85
8298;BME280;4187;42.778;23.242;2023-04-15T11:30:18;94693.72;;;18.16;40.29
8298;BME280;4187;42.778;23.242;2023-04-15T11:32:51;94703.75;;;18.21;37.39
8298;BME280;4187;42.778;23.242;2023-04-15T11:35:22;94696.59;;;18.08;37.44
8298;BME280;4187;42.778;23.242;2023-04-15T11:37:55;94697.63;;;18.14;39.08
8298;BME280;4187;42.778;23.242;2023-04-15T11:40:27;94681.97;;;18.30;37.32
8298;BME280;4187;42.778;23.242;2023-04-15T11:43:06;94690.19;;;18.29;38.39
8298;BME280;4187;42.778;23.242;2023-04-15T11:45:52;94676.66;;;18.24;38.97
8298;BME280;4187;42.778;23.242;2023-04-15T11:48:24;94690.84;;;18.50;41.53
8298;BME280;4187;42.778;23.242;2023-04-15T11:50:55;94685.28;;;18.59;42.05
8298;BME280;4187;42.778;23.242;2023-04-15T11:53:35;94688.16;;;18.50;38.45
8298;BME280;4187;42.778;23.242;2023-04-15T11:56:06;94670.47;;;18.56;39.83
8298;BME280;4187;42.778;23.242;2023-04-15T11:58:42;94680.72;;;18.72;37.58
8298;BME280;4187;42.778;23.242;2023-04-15T12:01:30;94687.28;;;18.89;39.51
8298;BME280;4187;42.778;23.242;2023-04-15T12:03:59;94673.47;;;18.92;38.12
8298;BME280;4187;42.778;23.242;2023-04-15T12:06:33;94685.25;;;18.72;35.68
8298;BME280;4187;42.778;23.242;2023-04-15T12:09:11;94615.59;;;18.40;38.33
8298;BME280;4187;42.778;23.242;2023-04-15T12:11:46;94676.53;;;18.96;37.12
8298;BME280;4187;42.778;23.242;2023-04-15T12:14:29;94684.34;;;19.04;39.46
8298;BME280;4187;42.778;23.242;2023-04-15T12:17:04;94683.09;;;19.06;38.74
8298;BME280;4187;42.778;23.242;2023-04-15T12:19:38;94675.72;;;18.95;35.73
8298;BME280;4187;42.778;23.242;2023-04-15T12:22:15;94682.13;;;18.94;38.06
8298;BME280;4187;42.778;23.242;2023-04-15T12:24:56;94678.25;;;18.84;39.90
8298;BME280;4187;42.778;23.242;2023-04-15T12:27:30;94673.72;;;18.78;42.29
8298;BME280;4187;42.778;23.242;2023-04-15T12:30:10;94678.84;;;18.86;41.25
8298;BME280;4187;42.778;23.242;2023-04-15T12:32:47;94684.03;;;18.61;41.10
8298;BME280;4187;42.778;23.242;2023-04-15T12:35:20;94674.13;;;18.75;43.30
8298;BME280;4187;42.778;23.242;2023-04-15T12:37:49;94674.25;;;19.06;40.57
8298;BME280;4187;42.778;23.242;2023-04-15T12:40:23;94681.84;;;19.16;37.26
8298;BME280;4187;42.778;23.242;2023-04-15T12:43:04;94685.41;;;18.96;39.16
8298;BME280;4187;42.778;23.242;2023-04-15T12:45:38;94684.59;;;18.83;38.40
8298;BME280;4187;42.778;23.242;2023-04-15T12:48:24;94685.28;;;18.59;39.73
8298;BME280;4187;42.778;23.242;2023-04-15T12:51:06;94680.91;;;18.71;39.50
8298;BME280;4187;42.778;23.242;2023-04-15T12:53:51;94703.13;;;18.71;37.43
8298;BME280;4187;42.778;23.242;2023-04-15T12:56:27;94686.22;;;18.90;37.84
8298;BME280;4187;42.778;23.242;2023-04-15T12:58:57;94692.34;;;19.04;36.17
8298;BME280;4187;42.778;23.242;2023-04-15T13:01:40;94681.00;;;19.15;40.79
8298;BME280;4187;42.778;23.242;2023-04-15T13:04:20;94687.78;;;19.18;38.63
8298;BME280;4187;42.778;23.242;2023-04-15T13:06:50;94658.22;;;18.99;39.63
8298;BME280;4187;42.778;23.242;2023-04-15T13:09:20;94679.03;;;18.97;35.79
8298;BME280;4187;42.778;23.242;2023-04-15T13:11:53;94706.97;;;19.08;37.87
8298;BME280;4187;42.778;23.242;2023-04-15T13:14:31;94672.03;;;18.96;36.38
8298;BME280;4187;42.778;23.242;2023-04-15T13:17:00;94684.56;;;18.96;35.85
8298;BME280;4187;42.778;23.242;2023-04-15T13:19:39;94687.84;;;19.04;35.88
8298;BME280;4187;42.778;23.242;2023-04-15T13:22:15;94680.56;;;19.25;35.82
8298;BME280;4187;42.778;23.242;2023-04-15T13:24:44;94686.91;;;19.30;36.34
8298;BME280;4187;42.778;23.242;2023-04-15T13:27:20;94684.22;;;19.43;34.36
8298;BME280;4187;42.778;23.242;2023-04-15T13:29:49;94681.13;;;19.46;34.55
8298;BME280;4187;42.778;23.242;2023-04-15T13:32:19;94678.47;;;19.40;36.85
8298;BME280;4187;42.778;23.242;2023-04-15T13:34:51;94692.66;;;19.34;35.45
8298;BME280;4187;42.778;23.242;2023-04-15T13:37:32;94678.56;;;19.14;34.20
8298;BME280;4187;42.778;23.242;2023-04-15T13:40:05;94690.47;;;19.18;36.02
8298;BME280;4187;42.778;23.242;2023-04-15T13:42:36;94680.16;;;19.21;34.71
8298;BME280;4187;42.778;23.242;2023-04-15T13:45:09;94682.63;;;19.23;34.48
8298;BME280;4187;42.778;23.242;2023-04-15T13:47:52;94680.75;;;19.30;34.59
8298;BME280;4187;42.778;23.242;2023-04-15T13:50:27;94698.84;;;19.34;35.57
8298;BME280;4187;42.778;23.242;2023-04-15T13:53:03;94682.19;;;19.26;33.38
8298;BME280;4187;42.778;23.242;2023-04-15T13:55:37;94676.66;;;19.27;33.91
8298;BME280;4187;42.778;23.242;2023-04-15T13:58:07;94659.03;;;19.06;34.95
8298;BME280;4187;42.778;23.242;2023-04-15T14:00:37;94687.59;;;19.19;34.33
8298;BME280;4187;42.778;23.242;2023-04-15T14:03:07;94672.84;;;18.97;35.71
8298;BME280;4187;42.778;23.242;2023-04-15T14:05:39;94677.78;;;19.00;35.17
8298;BME280;4187;42.778;23.242;2023-04-15T14:08:07;94667.97;;;18.74;37.09
8298;BME280;4187;42.778;23.242;2023-04-15T14:10:38;94674.97;;;18.75;38.19
8298;BME280;4187;42.778;23.242;2023-04-15T14:13:06;94680.31;;;18.75;36.28
8298;BME280;4187;42.778;23.242;2023-04-15T14:15:35;94676.84;;;18.62;35.89
8298;BME280;4187;42.778;23.242;2023-04-15T14:18:05;94683.22;;;18.67;36.45
8298;BME280;4187;42.778;23.242;2023-04-15T14:20:35;94686.28;;;18.64;37.92
8298;BME280;4187;42.778;23.242;2023-04-15T14:23:06;94688.38;;;18.62;38.84
8298;BME280;4187;42.778;23.242;2023-04-15T14:25:37;94664.72;;;18.59;37.63
8298;BME280;4187;42.778;23.242;2023-04-15T14:28:06;94675.38;;;18.72;38.79
8298;BME280;4187;42.778;23.242;2023-04-15T14:30:39;94682.75;;;18.77;37.28
8298;BME280;4187;42.778;23.242;2023-04-15T14:33:15;94668.59;;;18.70;36.74
8298;BME280;4187;42.778;23.242;2023-04-15T14:35:42;94647.41;;;18.68;36.38
8298;BME280;4187;42.778;23.242;2023-04-15T14:38:21;94664.88;;;18.71;37.51
8298;BME280;4187;42.778;23.242;2023-04-15T14:41:03;94660.16;;;18.73;38.70
8298;BME280;4187;42.778;23.242;2023-04-15T14:43:37;94660.34;;;18.78;36.10
8298;BME280;4187;42.778;23.242;2023-04-15T14:46:06;94647.72;;;19.04;39.99
8298;BME280;4187;42.778;23.242;2023-04-15T14:48:48;94648.91;;;19.22;34.42
8298;BME280;4187;42.778;23.242;2023-04-15T14:51:19;94658.41;;;19.04;35.51
8298;BME280;4187;42.778;23.242;2023-04-15T14:53:56;94656.22;;;18.88;35.58
8298;BME280;4187;42.778;23.242;2023-04-15T14:56:27;94655.44;;;18.81;35.28
8298;BME280;4187;42.778;23.242;2023-04-15T14:59:01;94650.28;;;18.80;35.81
8298;BME280;4187;42.778;23.242;2023-04-15T15:01:30;94654.16;;;18.90;34.68
8298;BME280;4187;42.778;23.242;2023-04-15T15:03:59;94657.22;;;18.94;35.05
8298;BME280;4187;42.778;23.242;2023-04-15T15:06:26;94653.53;;;18.88;35.54
8298;BME280;4187;42.778;23.242;2023-04-15T15:08:56;94646.16;;;18.77;35.21
8298;BME280;4187;42.778;23.242;2023-04-15T15:11:28;94646.16;;;18.77;35.55
8298;BME280;4187;42.778;23.242;2023-04-15T15:13:58;94647.19;;;18.76;35.70
8298;BME280;4187;42.778;23.242;2023-04-15T15:16:27;94638.19;;;18.64;35.92
8298;BME280;4187;42.778;23.242;2023-04-15T15:18:56;94640.44;;;18.67;34.27
8298;BME280;4187;42.778;23.242;2023-04-15T15:21:28;94641.06;;;18.63;34.32
8298;BME280;4187;42.778;23.242;2023-04-15T15:24:02;94645.78;;;18.67;36.27
8298;BME280;4187;42.778;23.242;2023-04-15T15:26:36;94643.31;;;18.66;36.42
8298;BME280;4187;42.778;23.242;2023-04-15T15:29:10;94641.28;;;18.61;36.76
8298;BME280;4187;42.778;23.242;2023-04-15T15:34:38;94630.91;;;18.97;38.37
8298;BME280;4187;42.778;23.242;2023-04-15T15:37:12;94622.66;;;18.92;37.71
8298;BME280;4187;42.778;23.242;2023-04-15T15:40:05;94629.47;;;18.95;36.35
8298;BME280;4187;42.778;23.242;2023-04-15T15:42:35;94634.22;;;18.86;38.55
8298;BME280;4187;42.778;23.242;2023-04-15T15:45:06;94637.97;;;18.72;36.69
8298;BME280;4187;42.778;23.242;2023-04-15T15:47:40;94635.94;;;18.61;38.32
8298;BME280;4187;42.778;23.242;2023-04-15T15:50:15;94655.06;;;18.58;38.36
8298;BME280;4187;42.778;23.242;2023-04-15T15:52:43;94637.19;;;18.52;38.34
8298;BME280;4187;42.778;23.242;2023-04-15T15:55:14;94636.16;;;18.60;42.94
8298;BME280;4187;42.778;23.242;2023-04-15T15:57:45;94632.03;;;18.64;38.50
8298;BME280;4187;42.778;23.242;2023-04-15T16:00:16;94646.41;;;18.69;37.87
8298;BME280;4187;42.778;23.242;2023-04-15T16:02:55;94627.13;;;18.47;37.89
8298;BME280;4187;42.778;23.242;2023-04-15T16:05:34;94612.56;;;18.24;38.51
8298;BME280;4187;42.778;23.242;2023-04-15T16:08:23;94634.53;;;18.26;38.73
8298;BME280;4187;42.778;23.242;2023-04-15T16:11:07;94635.34;;;18.20;38.85
8298;BME280;4187;42.778;23.242;2023-04-15T16:13:47;94644.38;;;18.12;40.44
8298;BME280;4187;42.778;23.242;2023-04-15T16:16:21;94626.53;;;18.00;40.63
8298;BME280;4187;42.778;23.242;2023-04-15T16:19:15;94633.28;;;18.09;39.91